sensor_id;sensor_type;location;lat;lon;timestamp;pressure;altitude;pressure_sealevel;temperature;humidity
79544;BME280;68994;47.176;7.534;2023-07-29T00:00:14;95720.84;;;16.43;91.28
79544;BME280;68994;47.176;7.534;2023-07-29T00:02:40;95707.59;;;16.32;91.88
79544;BME280;68994;47.176;7.534;2023-07-29T00:05:07;95727.06;;;16.29;90.78
79544;BME280;68994;47.176;7.534;2023-07-29T00:07:34;95728.44;;;16.27;91.55
79544;BME280;68994;47.176;7.534;2023-07-29T00:10:02;95715.78;;;16.27;91.62
79544;BME280;68994;47.176;7.534;2023-07-29T00:12:29;95717.66;;;16.27;91.38
79544;BME280;68994;47.176;7.534;2023-07-29T00:14:56;95702.63;;;16.26;91.24
79544;BME280;68994;47.176;7.534;2023-07-29T00:17:22;95699.41;;;16.24;91.40
79544;BME280;68994;47.176;7.534;2023-07-29T00:19:49;95712.38;;;16.22;92.16
79544;BME280;68994;47.176;7.534;2023-07-29T00:22:15;95706.59;;;16.28;92.29
79544;BME280;68994;47.176;7.534;2023-07-29T00:24:42;95704.91;;;16.32;92.25
79544;BME280;68994;47.176;7.534;2023-07-29T00:27:10;95701.69;;;16.30;91.59
79544;BME280;68994;47.176;7.534;2023-07-29T00:29:36;95693.31;;;16.32;91.23
79544;BME280;68994;47.176;7.534;2023-07-29T00:32:04;95698.72;;;16.32;91.06
79544;BME280;68994;47.176;7.534;2023-07-29T00:34:30;95695.22;;;16.31;90.90
79544;BME280;68994;47.176;7.534;2023-07-29T00:36:57;95701.41;;;16.32;91.55
79544;BME280;68994;47.176;7.534;2023-07-29T00:39:23;95693.63;;;16.30;90.86
79544;BME280;68994;47.176;7.534;2023-07-29T00:41:50;95686.66;;;16.29;90.89
79544;BME280;68994;47.176;7.534;2023-07-29T00:44:18;95684.16;;;16.33;91.39
79544;BME280;68994;47.176;7.534;2023-07-29T00:46:45;95691.94;;;16.35;90.92
79544;BME280;68994;47.176;7.534;2023-07-29T00:49:12;95696.84;;;16.32;90.78
79544;BME280;68994;47.176;7.534;2023-07-29T00:51:39;95698.22;;;16.30;90.73
79544;BME280;68994;47.176;7.534;2023-07-29T00:54:06;95707.59;;;16.32;91.33
79544;BME280;68994;47.176;7.534;2023-07-29T00:56:32;95708.88;;;16.35;91.14
79544;BME280;68994;47.176;7.534;2023-07-29T00:58:59;95714.88;;;16.32;90.97
79544;BME280;68994;47.176;7.534;2023-07-29T01:04:03;95714.25;;;16.35;91.03
79544;BME280;68994;47.176;7.534;2023-07-29T01:06:38;95720.84;;;16.43;90.85
79544;BME280;68994;47.176;7.534;2023-07-29T01:09:11;95715.47;;;16.43;90.71
79544;BME280;68994;47.176;7.534;2023-07-29T01:11:47;95712.06;;;16.37;90.97
79544;BME280;68994;47.176;7.534;2023-07-29T01:14:22;95710.50;;;16.36;90.82
79544;BME280;68994;47.176;7.534;2023-07-29T01:16:56;95715.56;;;16.38;91.50
79544;BME280;68994;47.176;7.534;2023-07-29T01:19:40;95709.38;;;16.37;91.04
79544;BME280;68994;47.176;7.534;2023-07-29T01:22:10;95711.75;;;16.39;91.65
79544;BME280;68994;47.176;7.534;2023-07-29T01:24:39;95723.06;;;16.41;91.74
79544;BME280;68994;47.176;7.534;2023-07-29T01:27:05;95725.94;;;16.44;91.64
79544;BME280;68994;47.176;7.534;2023-07-29T01:29:32;95722.03;;;16.50;91.65
79544;BME280;68994;47.176;7.534;2023-07-29T01:32:04;95722.91;;;16.60;91.97
79544;BME280;68994;47.176;7.534;2023-07-29T01:34:39;95708.25;;;16.66;91.69
79544;BME280;68994;47.176;7.534;2023-07-29T01:37:09;95713.41;;;16.76;91.44
79544;BME280;68994;47.176;7.534;2023-07-29T01:39:40;95725.97;;;16.81;91.33
79544;BME280;68994;47.176;7.534;2023-07-29T01:42:09;95743.94;;;16.85;91.52
79544;BME280;68994;47.176;7.534;2023-07-29T01:44:36;95750.63;;;16.88;91.48
79544;BME280;68994;47.176;7.534;2023-07-29T01:47:03;95757.41;;;16.85;90.78
79544;BME280;68994;47.176;7.534;2023-07-29T01:49:30;95744.50;;;16.82;89.47
79544;BME280;68994;47.176;7.534;2023-07-29T01:51:56;95752.91;;;16.81;88.84
79544;BME280;68994;47.176;7.534;2023-07-29T01:54:23;95755.91;;;16.79;88.40
79544;BME280;68994;47.176;7.534;2023-07-29T01:56:51;95740.66;;;16.75;89.34
79544;BME280;68994;47.176;7.534;2023-07-29T01:59:17;95724.09;;;16.67;90.69
79544;BME280;68994;47.176;7.534;2023-07-29T02:01:44;95729.28;;;16.64;91.57
79544;BME280;68994;47.176;7.534;2023-07-29T02:04:11;95720.09;;;16.65;91.61
79544;BME280;68994;47.176;7.534;2023-07-29T02:06:38;95716.94;;;16.63;92.05
79544;BME280;68994;47.176;7.534;2023-07-29T02:09:05;95718.00;;;16.62;92.33
79544;BME280;68994;47.176;7.534;2023-07-29T02:11:31;95719.13;;;16.61;92.57
79544;BME280;68994;47.176;7.534;2023-07-29T02:13:59;95720.41;;;16.63;92.48
79544;BME280;68994;47.176;7.534;2023-07-29T02:16:26;95712.63;;;16.62;92.32
79544;BME280;68994;47.176;7.534;2023-07-29T02:18:52;95710.31;;;16.69;92.45
79544;BME280;68994;47.176;7.534;2023-07-29T02:21:19;95714.38;;;16.80;91.50
79544;BME280;68994;47.176;7.534;2023-07-29T02:23:46;95719.69;;;16.85;91.02
79544;BME280;68994;47.176;7.534;2023-07-29T02:26:12;95718.97;;;16.80;91.29
79544;BME280;68994;47.176;7.534;2023-07-29T02:28:39;95729.09;;;16.74;91.76
79544;BME280;68994;47.176;7.534;2023-07-29T02:31:14;95734.88;;;16.67;91.94
79544;BME280;68994;47.176;7.534;2023-07-29T02:33:41;95749.53;;;16.75;91.78
79544;BME280;68994;47.176;7.534;2023-07-29T02:36:08;95756.03;;;16.74;92.11
79544;BME280;68994;47.176;7.534;2023-07-29T02:38:34;95740.94;;;16.73;92.50
79544;BME280;68994;47.176;7.534;2023-07-29T02:41:01;95738.75;;;16.75;92.38
79544;BME280;68994;47.176;7.534;2023-07-29T02:43:28;95736.34;;;16.74;91.98
79544;BME280;68994;47.176;7.534;2023-07-29T02:45:54;95742.34;;;16.70;92.08
79544;BME280;68994;47.176;7.534;2023-07-29T02:48:22;95753.94;;;16.71;92.56
79544;BME280;68994;47.176;7.534;2023-07-29T02:50:49;95755.50;;;16.72;92.97
79544;BME280;68994;47.176;7.534;2023-07-29T02:53:15;95750.94;;;16.73;92.95
79544;BME280;68994;47.176;7.534;2023-07-29T02:55:42;95741.84;;;16.68;92.61
79544;BME280;68994;47.176;7.534;2023-07-29T02:58:08;95754.59;;;16.77;92.52
79544;BME280;68994;47.176;7.534;2023-07-29T03:00:35;95749.31;;;16.72;92.84
79544;BME280;68994;47.176;7.534;2023-07-29T03:03:02;95747.22;;;16.68;92.74
79544;BME280;68994;47.176;7.534;2023-07-29T03:05:30;95736.75;;;16.67;92.98
79544;BME280;68994;47.176;7.534;2023-07-29T03:07:57;95738.19;;;16.64;92.41
79544;BME280;68994;47.176;7.534;2023-07-29T03:10:24;95733.69;;;16.60;92.28
79544;BME280;68994;47.176;7.534;2023-07-29T03:12:50;95739.97;;;16.55;93.15
79544;BME280;68994;47.176;7.534;2023-07-29T03:15:17;95739.19;;;16.55;92.96
79544;BME280;68994;47.176;7.534;2023-07-29T03:17:44;95739.78;;;16.51;92.87
79544;BME280;68994;47.176;7.534;2023-07-29T03:20:10;95729.31;;;16.50;92.79
79544;BME280;68994;47.176;7.534;2023-07-29T03:22:41;95728.03;;;16.47;92.46
79544;BME280;68994;47.176;7.534;2023-07-29T03:25:08;95723.53;;;16.43;93.17
79544;BME280;68994;47.176;7.534;2023-07-29T03:27:34;95722.53;;;16.39;92.97
79544;BME280;68994;47.176;7.534;2023-07-29T03:30:02;95728.56;;;16.36;92.93
79544;BME280;68994;47.176;7.534;2023-07-29T03:32:29;95730.44;;;16.35;93.57
79544;BME280;68994;47.176;7.534;2023-07-29T03:34:55;95736.00;;;16.39;93.67
79544;BME280;68994;47.176;7.534;2023-07-29T03:37:22;95719.84;;;16.39;93.32
79544;BME280;68994;47.176;7.534;2023-07-29T03:39:50;95719.53;;;16.40;93.15
79544;BME280;68994;47.176;7.534;2023-07-29T03:42:17;95729.22;;;16.41;93.13
79544;BME280;68994;47.176;7.534;2023-07-29T03:44:44;95731.44;;;16.39;92.98
79544;BME280;68994;47.176;7.534;2023-07-29T03:47:10;95735.31;;;16.33;93.10
79544;BME280;68994;47.176;7.534;2023-07-29T03:49:37;95730.53;;;16.30;93.52
79544;BME280;68994;47.176;7.534;2023-07-29T03:52:04;95727.06;;;16.29;93.17
79544;BME280;68994;47.176;7.534;2023-07-29T03:54:32;95728.44;;;16.27;92.89
79544;BME280;68994;47.176;7.534;2023-07-29T03:57:00;95723.34;;;16.25;93.24
79544;BME280;68994;47.176;7.534;2023-07-29T03:59:26;95727.44;;;16.23;92.99
79544;BME280;68994;47.176;7.534;2023-07-29T04:01:53;95725.84;;;16.22;93.25
79544;BME280;68994;47.176;7.534;2023-07-29T04:04:20;95717.16;;;16.25;93.40
79544;BME280;68994;47.176;7.534;2023-07-29T04:06:46;95734.00;;;16.30;93.20
79544;BME280;68994;47.176;7.534;2023-07-29T04:09:13;95741.09;;;16.40;92.76
79544;BME280;68994;47.176;7.534;2023-07-29T04:11:40;95737.91;;;16.38;92.64
79544;BME280;68994;47.176;7.534;2023-07-29T04:14:07;95740.59;;;16.38;92.78
79544;BME280;68994;47.176;7.534;2023-07-29T04:16:34;95748.47;;;16.48;92.31
79544;BME280;68994;47.176;7.534;2023-07-29T04:19:01;95751.44;;;16.47;92.61
79544;BME280;68994;47.176;7.534;2023-07-29T04:21:27;95753.16;;;16.43;92.28
79544;BME280;68994;47.176;7.534;2023-07-29T04:23:54;95758.06;;;16.41;92.41
79544;BME280;68994;47.176;7.534;2023-07-29T04:26:20;95758.16;;;16.36;92.51
79544;BME280;68994;47.176;7.534;2023-07-29T04:28:47;95763.84;;;16.34;92.46
79544;BME280;68994;47.176;7.534;2023-07-29T04:31:15;95753.69;;;16.31;92.31
79544;BME280;68994;47.176;7.534;2023-07-29T04:33:41;95762.94;;;16.25;91.82
79544;BME280;68994;47.176;7.534;2023-07-29T04:36:08;95761.25;;;16.29;92.51
79544;BME280;68994;47.176;7.534;2023-07-29T04:38:37;95761.03;;;16.25;92.79
79544;BME280;68994;47.176;7.534;2023-07-29T04:41:03;95767.13;;;16.31;92.72
79544;BME280;68994;47.176;7.534;2023-07-29T04:43:32;95762.06;;;16.29;92.67
79544;BME280;68994;47.176;7.534;2023-07-29T04:45:59;95761.94;;;16.35;92.72
79544;BME280;68994;47.176;7.534;2023-07-29T04:48:27;95763.16;;;16.42;93.19
79544;BME280;68994;47.176;7.534;2023-07-29T04:50:54;95749.97;;;16.55;92.61
79544;BME280;68994;47.176;7.534;2023-07-29T04:53:20;95758.00;;;16.68;92.75
79544;BME280;68994;47.176;7.534;2023-07-29T04:55:47;95764.19;;;16.83;91.50
79544;BME280;68994;47.176;7.534;2023-07-29T04:58:14;95760.09;;;16.85;91.08
79544;BME280;68994;47.176;7.534;2023-07-29T05:00:40;95761.69;;;16.86;91.26
79544;BME280;68994;47.176;7.534;2023-07-29T05:03:07;95763.59;;;16.86;91.07
79544;BME280;68994;47.176;7.534;2023-07-29T05:05:35;95764.19;;;16.83;91.06
79544;BME280;68994;47.176;7.534;2023-07-29T05:08:01;95761.59;;;16.78;91.17
79544;BME280;68994;47.176;7.534;2023-07-29T05:10:28;95774.06;;;16.74;91.08
79544;BME280;68994;47.176;7.534;2023-07-29T05:12:54;95769.28;;;16.70;90.98
79544;BME280;68994;47.176;7.534;2023-07-29T05:15:21;95765.91;;;16.65;91.42
79544;BME280;68994;47.176;7.534;2023-07-29T05:17:48;95767.28;;;16.62;91.22
79544;BME280;68994;47.176;7.534;2023-07-29T05:20:14;95773.31;;;16.59;91.80
79544;BME280;68994;47.176;7.534;2023-07-29T05:22:42;95772.00;;;16.57;91.87
79544;BME280;68994;47.176;7.534;2023-07-29T05:25:09;95774.00;;;16.65;92.20
79544;BME280;68994;47.176;7.534;2023-07-29T05:27:35;95771.47;;;16.68;91.90
79544;BME280;68994;47.176;7.534;2023-07-29T05:30:02;95765.19;;;16.73;92.51
79544;BME280;68994;47.176;7.534;2023-07-29T05:32:29;95774.25;;;16.77;92.06
79544;BME280;68994;47.176;7.534;2023-07-29T05:34:56;95776.34;;;16.80;92.38
79544;BME280;68994;47.176;7.534;2023-07-29T05:37:22;95775.75;;;16.83;92.39
79544;BME280;68994;47.176;7.534;2023-07-29T05:39:50;95769.97;;;16.90;92.48
79544;BME280;68994;47.176;7.534;2023-07-29T05:42:17;95770.03;;;16.99;91.79
79544;BME280;68994;47.176;7.534;2023-07-29T05:44:44;95767.41;;;17.08;91.73
79544;BME280;68994;47.176;7.534;2023-07-29T05:47:10;95766.69;;;17.16;91.46
79544;BME280;68994;47.176;7.534;2023-07-29T05:49:37;95765.97;;;17.24;91.48
79544;BME280;68994;47.176;7.534;2023-07-29T05:52:04;95772.72;;;17.35;91.34
79544;BME280;68994;47.176;7.534;2023-07-29T05:54:30;95769.59;;;17.42;90.41
79544;BME280;68994;47.176;7.534;2023-07-29T05:56:58;95773.25;;;17.46;90.88
79544;BME280;68994;47.176;7.534;2023-07-29T05:59:25;95768.88;;;17.50;90.65
79544;BME280;68994;47.176;7.534;2023-07-29T06:01:54;95770.66;;;17.55;90.46
79544;BME280;68994;47.176;7.534;2023-07-29T06:04:21;95771.31;;;17.60;90.53
79544;BME280;68994;47.176;7.534;2023-07-29T06:06:48;95769.78;;;17.68;90.53
79544;BME280;68994;47.176;7.534;2023-07-29T06:09:14;95778.84;;;17.72;89.95
79544;BME280;68994;47.176;7.534;2023-07-29T06:11:41;95776.31;;;17.76;89.81
79544;BME280;68994;47.176;7.534;2023-07-29T06:14:09;95773.47;;;17.81;89.55
79544;BME280;68994;47.176;7.534;2023-07-29T06:16:35;95774.22;;;17.95;87.96
79544;BME280;68994;47.176;7.534;2023-07-29T06:19:02;95781.28;;;18.05;88.89
79544;BME280;68994;47.176;7.534;2023-07-29T06:21:28;95775.75;;;18.19;89.17
79544;BME280;68994;47.176;7.534;2023-07-29T06:23:55;95784.56;;;18.33;87.16
79544;BME280;68994;47.176;7.534;2023-07-29T06:26:22;95769.97;;;18.43;87.08
79544;BME280;68994;47.176;7.534;2023-07-29T06:28:49;95775.41;;;18.52;86.81
79544;BME280;68994;47.176;7.534;2023-07-29T06:31:17;95768.09;;;18.61;85.07
79544;BME280;68994;47.176;7.534;2023-07-29T06:33:43;95773.22;;;18.71;85.43
79544;BME280;68994;47.176;7.534;2023-07-29T06:36:10;95764.31;;;18.80;85.58
79544;BME280;68994;47.176;7.534;2023-07-29T06:38:36;95759.13;;;18.92;85.79
79544;BME280;68994;47.176;7.534;2023-07-29T06:41:03;95764.72;;;19.04;86.60
79544;BME280;68994;47.176;7.534;2023-07-29T06:43:30;95763.13;;;19.21;83.64
79544;BME280;68994;47.176;7.534;2023-07-29T06:45:57;95758.66;;;19.25;85.34
79544;BME280;68994;47.176;7.534;2023-07-29T06:48:25;95769.47;;;19.25;85.50
79544;BME280;68994;47.176;7.534;2023-07-29T06:50:51;95771.88;;;19.26;84.91
79544;BME280;68994;47.176;7.534;2023-07-29T06:53:20;95775.84;;;19.29;83.93
79544;BME280;68994;47.176;7.534;2023-07-29T06:55:46;95764.88;;;19.34;82.74
79544;BME280;68994;47.176;7.534;2023-07-29T06:58:13;95768.84;;;19.28;82.88
79544;BME280;68994;47.176;7.534;2023-07-29T07:00:40;95763.28;;;19.24;83.10
79544;BME280;68994;47.176;7.534;2023-07-29T07:03:06;95766.47;;;19.18;85.09
79544;BME280;68994;47.176;7.534;2023-07-29T07:05:34;95772.81;;;19.13;85.23
79544;BME280;68994;47.176;7.534;2023-07-29T07:08:01;95770.44;;;19.12;85.36
79544;BME280;68994;47.176;7.534;2023-07-29T07:10:27;95775.84;;;19.12;86.04
79544;BME280;68994;47.176;7.534;2023-07-29T07:12:54;95770.59;;;19.06;86.49
79544;BME280;68994;47.176;7.534;2023-07-29T07:15:21;95770.91;;;19.05;87.04
79544;BME280;68994;47.176;7.534;2023-07-29T07:17:47;95757.38;;;19.05;87.28
79544;BME280;68994;47.176;7.534;2023-07-29T07:20:14;95762.47;;;19.06;87.61
79544;BME280;68994;47.176;7.534;2023-07-29T07:22:42;95757.53;;;19.08;87.86
79544;BME280;68994;47.176;7.534;2023-07-29T07:25:09;95769.78;;;19.15;87.05
79544;BME280;68994;47.176;7.534;2023-07-29T07:27:36;95757.72;;;19.21;86.99
79544;BME280;68994;47.176;7.534;2023-07-29T07:30:03;95758.03;;;19.28;86.11
79544;BME280;68994;47.176;7.534;2023-07-29T07:32:30;95752.75;;;19.40;85.70
79544;BME280;68994;47.176;7.534;2023-07-29T07:34:57;95747.50;;;19.53;85.38
79544;BME280;68994;47.176;7.534;2023-07-29T07:37:23;95750.81;;;19.58;83.49
79544;BME280;68994;47.176;7.534;2023-07-29T07:39:51;95741.28;;;19.61;83.76
79544;BME280;68994;47.176;7.534;2023-07-29T07:42:18;95745.38;;;19.67;83.93
79544;BME280;68994;47.176;7.534;2023-07-29T07:44:44;95736.47;;;19.67;83.67
79544;BME280;68994;47.176;7.534;2023-07-29T07:47:11;95736.00;;;19.64;83.59
79544;BME280;68994;47.176;7.534;2023-07-29T07:49:38;95735.38;;;19.76;83.37
79544;BME280;68994;47.176;7.534;2023-07-29T07:52:05;95739.78;;;19.90;82.43
79544;BME280;68994;47.176;7.534;2023-07-29T07:54:31;95744.25;;;19.86;82.86
79544;BME280;68994;47.176;7.534;2023-07-29T07:56:59;95742.31;;;19.95;83.00
79544;BME280;68994;47.176;7.534;2023-07-29T07:59:26;95741.94;;;20.14;81.12
79544;BME280;68994;47.176;7.534;2023-07-29T08:01:53;95754.53;;;20.48;80.42
79544;BME280;68994;47.176;7.534;2023-07-29T08:04:19;95745.72;;;20.81;79.10
79544;BME280;68994;47.176;7.534;2023-07-29T08:06:46;95746.94;;;21.13;77.25
79544;BME280;68994;47.176;7.534;2023-07-29T08:09:12;95744.19;;;21.35;78.98
79544;BME280;68994;47.176;7.534;2023-07-29T08:11:40;95736.97;;;21.60;73.87
79544;BME280;68994;47.176;7.534;2023-07-29T08:14:08;95735.75;;;21.70;76.00
79544;BME280;68994;47.176;7.534;2023-07-29T08:16:34;95720.06;;;21.88;70.84
79544;BME280;68994;47.176;7.534;2023-07-29T08:19:01;95721.66;;;21.89;70.57
79544;BME280;68994;47.176;7.534;2023-07-29T08:21:28;95719.97;;;21.84;70.54
79544;BME280;68994;47.176;7.534;2023-07-29T08:23:54;95722.81;;;22.00;69.97
79544;BME280;68994;47.176;7.534;2023-07-29T08:26:21;95713.97;;;21.91;71.53
79544;BME280;68994;47.176;7.534;2023-07-29T08:28:48;95715.03;;;22.11;68.74
79544;BME280;68994;47.176;7.534;2023-07-29T08:31:16;95723.50;;;22.21;72.60
79544;BME280;68994;47.176;7.534;2023-07-29T08:33:43;95721.06;;;22.41;71.98
79544;BME280;68994;47.176;7.534;2023-07-29T08:36:09;95705.72;;;22.49;67.66
79544;BME280;68994;47.176;7.534;2023-07-29T08:38:36;95710.69;;;22.59;68.32
79544;BME280;68994;47.176;7.534;2023-07-29T08:41:08;95712.75;;;22.62;66.97
79544;BME280;68994;47.176;7.534;2023-07-29T08:43:38;95712.19;;;22.56;67.86
79544;BME280;68994;47.176;7.534;2023-07-29T08:46:05;95714.69;;;22.62;68.66
79544;BME280;68994;47.176;7.534;2023-07-29T08:48:41;95704.47;;;22.58;68.58
79544;BME280;68994;47.176;7.534;2023-07-29T08:51:08;95712.59;;;22.83;69.25
79544;BME280;68994;47.176;7.534;2023-07-29T08:53:35;95716.13;;;22.84;67.74
79544;BME280;68994;47.176;7.534;2023-07-29T08:56:02;95718.38;;;22.82;68.26
79544;BME280;68994;47.176;7.534;2023-07-29T08:58:30;95717.72;;;22.85;66.63
79544;BME280;68994;47.176;7.534;2023-07-29T09:00:57;95713.97;;;22.89;66.65
79544;BME280;68994;47.176;7.534;2023-07-29T09:03:23;95710.75;;;23.12;67.12
79544;BME280;68994;47.176;7.534;2023-07-29T09:05:52;95715.19;;;23.32;66.00
79544;BME280;68994;47.176;7.534;2023-07-29T09:08:19;95717.88;;;23.45;65.11
79544;BME280;68994;47.176;7.534;2023-07-29T09:10:47;95716.22;;;23.56;65.45
79544;BME280;68994;47.176;7.534;2023-07-29T09:13:13;95720.72;;;23.64;64.63
79544;BME280;68994;47.176;7.534;2023-07-29T09:15:40;95720.84;;;23.68;65.66
79544;BME280;68994;47.176;7.534;2023-07-29T09:18:11;95715.25;;;23.64;66.33
79544;BME280;68994;47.176;7.534;2023-07-29T09:20:38;95711.50;;;23.69;68.68
79544;BME280;68994;47.176;7.534;2023-07-29T09:23:08;95707.91;;;23.65;64.31
79544;BME280;68994;47.176;7.534;2023-07-29T09:25:36;95704.72;;;23.63;65.53
79544;BME280;68994;47.176;7.534;2023-07-29T09:28:08;95705.88;;;23.62;65.28
79544;BME280;68994;47.176;7.534;2023-07-29T09:30:36;95701.84;;;23.71;65.71
79544;BME280;68994;47.176;7.534;2023-07-29T09:33:02;95704.88;;;23.82;65.47
79544;BME280;68994;47.176;7.534;2023-07-29T09:35:32;95696.44;;;24.03;64.14
79544;BME280;68994;47.176;7.534;2023-07-29T09:37:59;95704.41;;;24.60;62.67
79544;BME280;68994;47.176;7.534;2023-07-29T09:40:27;95705.47;;;25.92;57.35
79544;BME280;68994;47.176;7.534;2023-07-29T09:42:54;95693.44;;;27.61;50.83
79544;BME280;68994;47.176;7.534;2023-07-29T09:45:22;95697.75;;;29.14;49.10
79544;BME280;68994;47.176;7.534;2023-07-29T09:47:49;95676.41;;;30.70;46.29
79544;BME280;68994;47.176;7.534;2023-07-29T09:50:16;95676.34;;;30.92;44.61
79544;BME280;68994;47.176;7.534;2023-07-29T09:52:43;95676.91;;;31.50;41.21
79544;BME280;68994;47.176;7.534;2023-07-29T09:55:12;95683.94;;;31.66;42.81
79544;BME280;68994;47.176;7.534;2023-07-29T09:57:40;95674.50;;;32.26;42.10
79544;BME280;68994;47.176;7.534;2023-07-29T10:00:10;95669.16;;;32.88;42.31
79544;BME280;68994;47.176;7.534;2023-07-29T10:02:38;95679.34;;;33.91;41.24
79544;BME280;68994;47.176;7.534;2023-07-29T10:05:06;95679.28;;;34.45;36.37
79544;BME280;68994;47.176;7.534;2023-07-29T10:07:33;95670.44;;;35.38;36.91
79544;BME280;68994;47.176;7.534;2023-07-29T10:10:01;95678.69;;;34.58;31.64
79544;BME280;68994;47.176;7.534;2023-07-29T10:12:28;95670.69;;;33.31;34.38
79544;BME280;68994;47.176;7.534;2023-07-29T10:14:59;95657.59;;;32.62;33.39
79544;BME280;68994;47.176;7.534;2023-07-29T10:17:26;95664.72;;;32.11;35.92
79544;BME280;68994;47.176;7.534;2023-07-29T10:19:53;95660.72;;;30.42;38.08
79544;BME280;68994;47.176;7.534;2023-07-29T10:22:24;95656.28;;;28.60;42.77
79544;BME280;68994;47.176;7.534;2023-07-29T10:24:54;95657.06;;;27.64;45.51
79544;BME280;68994;47.176;7.534;2023-07-29T10:27:21;95656.66;;;28.03;44.41
79544;BME280;68994;47.176;7.534;2023-07-29T10:29:50;95659.50;;;28.73;44.89
79544;BME280;68994;47.176;7.534;2023-07-29T10:32:20;95663.84;;;30.23;41.73
79544;BME280;68994;47.176;7.534;2023-07-29T10:34:50;95650.47;;;30.25;37.04
79544;BME280;68994;47.176;7.534;2023-07-29T10:37:17;95656.75;;;29.86;38.16
79544;BME280;68994;47.176;7.534;2023-07-29T10:39:52;95652.06;;;30.04;39.00
79544;BME280;68994;47.176;7.534;2023-07-29T10:42:19;95664.19;;;28.76;39.47
79544;BME280;68994;47.176;7.534;2023-07-29T10:44:46;95646.34;;;27.51;41.16
79544;BME280;68994;47.176;7.534;2023-07-29T10:47:15;95646.97;;;27.75;42.47
79544;BME280;68994;47.176;7.534;2023-07-29T10:49:43;95652.47;;;29.88;39.34
79544;BME280;68994;47.176;7.534;2023-07-29T10:52:13;95637.78;;;30.92;36.90
79544;BME280;68994;47.176;7.534;2023-07-29T10:54:43;95634.19;;;31.10;36.22
79544;BME280;68994;47.176;7.534;2023-07-29T10:57:13;95636.22;;;30.77;34.79
79544;BME280;68994;47.176;7.534;2023-07-29T10:59:40;95635.13;;;31.62;34.80
79544;BME280;68994;47.176;7.534;2023-07-29T11:02:14;95647.72;;;30.25;35.44
79544;BME280;68994;47.176;7.534;2023-07-29T11:04:50;95640.66;;;30.09;37.23
79544;BME280;68994;47.176;7.534;2023-07-29T11:07:24;95642.63;;;29.84;38.38
79544;BME280;68994;47.176;7.534;2023-07-29T11:09:56;95636.56;;;29.24;35.76
79544;BME280;68994;47.176;7.534;2023-07-29T11:12:37;95641.31;;;29.34;38.84
79544;BME280;68994;47.176;7.534;2023-07-29T11:15:06;95622.06;;;29.20;36.40
79544;BME280;68994;47.176;7.534;2023-07-29T11:17:39;95615.50;;;30.22;36.76
79544;BME280;68994;47.176;7.534;2023-07-29T11:20:08;95626.88;;;30.38;35.23
79544;BME280;68994;47.176;7.534;2023-07-29T11:22:35;95624.47;;;29.54;35.46
79544;BME280;68994;47.176;7.534;2023-07-29T11:25:03;95608.59;;;28.90;35.96
79544;BME280;68994;47.176;7.534;2023-07-29T11:27:30;95620.22;;;28.06;38.61
79544;BME280;68994;47.176;7.534;2023-07-29T11:29:57;95620.28;;;26.93;40.13
79544;BME280;68994;47.176;7.534;2023-07-29T11:32:24;95636.75;;;26.40;40.93
79544;BME280;68994;47.176;7.534;2023-07-29T11:34:51;95611.84;;;25.95;41.83
79544;BME280;68994;47.176;7.534;2023-07-29T11:37:19;95619.84;;;25.61;43.27
79544;BME280;68994;47.176;7.534;2023-07-29T11:39:47;95616.38;;;25.41;45.23
79544;BME280;68994;47.176;7.534;2023-07-29T11:42:14;95617.03;;;25.34;45.96
79544;BME280;68994;47.176;7.534;2023-07-29T11:44:41;95624.94;;;25.20;45.19
79544;BME280;68994;47.176;7.534;2023-07-29T11:47:08;95627.91;;;25.11;45.08
79544;BME280;68994;47.176;7.534;2023-07-29T11:49:36;95628.97;;;25.07;45.17
79544;BME280;68994;47.176;7.534;2023-07-29T11:52:03;95635.66;;;25.09;46.35
79544;BME280;68994;47.176;7.534;2023-07-29T11:54:31;95637.97;;;25.07;46.07
79544;BME280;68994;47.176;7.534;2023-07-29T11:56:58;95652.34;;;25.04;47.20
79544;BME280;68994;47.176;7.534;2023-07-29T11:59:24;95654.63;;;25.02;47.27
79544;BME280;68994;47.176;7.534;2023-07-29T12:01:51;95665.03;;;25.16;47.98
79544;BME280;68994;47.176;7.534;2023-07-29T12:04:19;95657.59;;;25.32;47.84
79544;BME280;68994;47.176;7.534;2023-07-29T12:06:46;95661.09;;;25.33;47.06
79544;BME280;68994;47.176;7.534;2023-07-29T12:09:13;95659.59;;;25.16;45.19
79544;BME280;68994;47.176;7.534;2023-07-29T12:11:41;95690.88;;;24.83;46.72
79544;BME280;68994;47.176;7.534;2023-07-29T12:14:08;95697.16;;;24.52;46.21
79544;BME280;68994;47.176;7.534;2023-07-29T12:16:40;95694.13;;;24.21;48.98
79544;BME280;68994;47.176;7.534;2023-07-29T12:19:07;95696.44;;;24.19;50.35
79544;BME280;68994;47.176;7.534;2023-07-29T12:21:33;95703.53;;;24.40;51.22
79544;BME280;68994;47.176;7.534;2023-07-29T12:24:02;95711.63;;;24.52;51.27
79544;BME280;68994;47.176;7.534;2023-07-29T12:26:29;95711.91;;;24.47;53.30
79544;BME280;68994;47.176;7.534;2023-07-29T12:28:57;95711.84;;;24.12;54.70
79544;BME280;68994;47.176;7.534;2023-07-29T12:31:30;95710.09;;;24.03;55.47
79544;BME280;68994;47.176;7.534;2023-07-29T12:33:57;95713.94;;;24.02;56.72
79544;BME280;68994;47.176;7.534;2023-07-29T12:36:28;95725.63;;;24.03;56.48
79544;BME280;68994;47.176;7.534;2023-07-29T12:39:06;95722.13;;;23.86;57.43
79544;BME280;68994;47.176;7.534;2023-07-29T12:41:41;95727.16;;;23.72;58.31
79544;BME280;68994;47.176;7.534;2023-07-29T12:44:09;95739.16;;;23.55;58.20
79544;BME280;68994;47.176;7.534;2023-07-29T12:46:36;95744.53;;;23.39;56.88
79544;BME280;68994;47.176;7.534;2023-07-29T12:49:03;95744.41;;;23.20;57.16
79544;BME280;68994;47.176;7.534;2023-07-29T12:51:29;95770.97;;;22.98;58.38
79544;BME280;68994;47.176;7.534;2023-07-29T12:53:56;95763.50;;;22.83;58.43
79544;BME280;68994;47.176;7.534;2023-07-29T12:56:23;95770.78;;;22.66;59.35
79544;BME280;68994;47.176;7.534;2023-07-29T12:58:49;95759.66;;;22.47;60.21
79544;BME280;68994;47.176;7.534;2023-07-29T13:01:18;95762.06;;;22.36;60.78
79544;BME280;68994;47.176;7.534;2023-07-29T13:03:44;95763.41;;;22.30;60.61